Carora, Venezuela
Current Conditions -  °F | °C
As of 11:00 PM on Wednesday 26 Nov 2014 (Local Time) from SVBM Reporting Station
Broken Clouds Broken Clouds  
Wind Chill: 23°   Ceiling: 1300
Heat Index: 23°   Visibility: 6mi
Dew Point: 20°   Wind: 7mph
Humidity: 83%   Direction: 90°E
Pressure: 30.03"   Gusts: NA
Location:  10.19°N, 70.08°W
Report Text: SVBM 270300Z 09006KT 9999 BKN013 23/20 Q1017
Loading
Personal Weather Stations






























Interactive Weather Map New forecast layout! Learn more

10-Day Weather Forecast

Advertisements
Track Severe Weather on mobile